Time;durP1;ratioP1;P1;durP2;ratioP2;P2;SDS_P1;SDS_P2;PMS_P1;PMS_P2;Temp;Humidity;BMP_temperature;BMP_pressure;BME280_temperature;BME280_humidity;BME280_pressure;Samples;Min_cycle;Max_cycle;Signal;HPM_P1;HPM_P2
2023/08/02 00:02:07;;;;;;;12.88;3.60;;;;;;;15.61;100.00;99948.06;5051374;28;20028;-79
2023/08/02 00:04:32;;;;;;;10.98;3.30;;;;;;;15.57;100.00;99943.16;5052128;28;20513;-80
2023/08/02 00:06:57;;;;;;;11.45;3.50;;;;;;;15.59;100.00;99941.94;5050034;28;20082;-79
2023/08/02 00:09:23;;;;;;;10.02;3.38;;;;;;;15.54;100.00;99949.75;5050844;28;20024;-80
2023/08/02 00:11:51;;;;;;;9.68;3.78;;;;;;;15.53;100.00;99948.03;5050091;28;20043;-79
2023/08/02 00:14:16;;;;;;;15.52;4.10;;;;;;;15.53;100.00;99946.19;5050203;28;20037;-79
2023/08/02 00:16:42;;;;;;;15.95;3.95;;;;;;;15.48;100.00;99945.84;5051081;28;20471;-80
2023/08/02 00:19:08;;;;;;;12.30;3.42;;;;;;;15.44;100.00;99943.63;5048149;28;20048;-80
2023/08/02 00:21:33;;;;;;;10.77;3.65;;;;;;;15.46;100.00;99950.59;5050895;28;20028;-80
2023/08/02 00:23:59;;;;;;;11.45;3.13;;;;;;;15.44;100.00;99951.75;5050099;28;20025;-80
2023/08/02 00:26:24;;;;;;;11.43;3.17;;;;;;;15.43;100.00;99947.34;5050720;28;20016;-80
2023/08/02 00:28:49;;;;;;;17.15;3.65;;;;;;;15.41;100.00;99939.38;5050591;28;20016;-80
2023/08/02 00:31:14;;;;;;;14.55;3.80;;;;;;;15.42;100.00;99943.81;5050640;28;20771;-77
2023/08/02 00:33:40;;;;;;;12.35;3.85;;;;;;;15.45;100.00;99948.03;5050776;28;20032;-77
2023/08/02 00:36:05;;;;;;;15.20;4.20;;;;;;;15.45;100.00;99953.47;5049946;28;20167;-77
2023/08/02 00:38:31;;;;;;;12.60;3.60;;;;;;;15.42;100.00;99945.63;5049553;28;20511;-77
2023/08/02 00:41:04;;;;;;;14.20;4.07;;;;;;;15.43;100.00;99931.09;5049265;28;20108;-77
2023/08/02 00:43:29;;;;;;;11.27;3.95;;;;;;;15.44;100.00;99933.63;5048789;28;20036;-77
2023/08/02 00:45:56;;;;;;;14.10;4.07;;;;;;;15.46;100.00;99926.22;5049738;28;20017;-77
2023/08/02 00:48:21;;;;;;;13.35;3.55;;;;;;;15.45;100.00;99924.50;5049892;28;20195;-77
2023/08/02 00:50:47;;;;;;;12.85;3.72;;;;;;;15.47;100.00;99908.94;5049807;28;20555;-77
2023/08/02 00:53:12;;;;;;;9.75;3.65;;;;;;;15.47;100.00;99894.56;5049343;28;20013;-77
2023/08/02 00:55:39;;;;;;;16.25;4.10;;;;;;;15.47;100.00;99899.97;5048692;28;20214;-77
2023/08/02 00:58:04;;;;;;;18.85;4.32;;;;;;;15.48;100.00;99886.25;5050743;28;20039;-77
2023/08/02 01:00:30;;;;;;;14.27;3.95;;;;;;;15.52;100.00;99898.47;5047965;28;20037;-77
2023/08/02 01:02:56;;;;;;;14.88;3.50;;;;;;;15.55;100.00;99902.69;5048113;28;20025;-77
2023/08/02 01:05:27;;;;;;;10.43;3.75;;;;;;;15.53;100.00;99891.16;5047191;28;20025;-77
2023/08/02 01:08:02;;;;;;;12.02;3.25;;;;;;;15.56;100.00;99888.13;5048658;28;20040;-77
2023/08/02 01:10:32;;;;;;;12.77;3.35;;;;;;;15.57;100.00;99892.53;5047535;28;20195;-77
2023/08/02 01:13:01;;;;;;;16.42;3.63;;;;;;;15.57;100.00;99897.94;5048222;28;20032;-77
2023/08/02 01:15:27;;;;;;;10.93;3.42;;;;;;;15.62;100.00;99898.28;5048686;28;20067;-77
2023/08/02 01:17:54;;;;;;;13.57;3.78;;;;;;;15.60;100.00;99900.31;5049393;28;20429;-77
2023/08/02 01:20:20;;;;;;;11.15;3.10;;;;;;;15.64;100.00;99898.97;5050339;28;20052;-76
2023/08/02 01:22:45;;;;;;;14.20;4.03;;;;;;;15.64;100.00;99892.72;5048642;28;20308;-78
2023/08/02 01:25:11;;;;;;;12.20;3.70;;;;;;;15.66;100.00;99890.66;5049043;28;20043;-78
2023/08/02 01:27:57;;;;;;;16.13;4.03;;;;;;;15.69;100.00;99887.63;5046129;28;20032;-77
2023/08/02 01:30:28;;;;;;;10.95;3.38;;;;;;;15.68;100.00;99886.78;5040744;28;20035;-77
2023/08/02 01:32:54;;;;;;;10.77;3.17;;;;;;;15.69;100.00;99880.31;5046876;28;20060;-78
2023/08/02 01:35:19;;;;;;;13.85;3.67;;;;;;;15.66;100.00;99883.38;5050009;28;20021;-77
2023/08/02 01:37:46;;;;;;;14.55;3.78;;;;;;;15.67;100.00;99882.38;5048132;28;20150;-77
2023/08/02 01:40:13;;;;;;;17.25;4.18;;;;;;;15.69;100.00;99874.91;5048154;28;20032;-77
2023/08/02 01:42:38;;;;;;;15.90;4.13;;;;;;;15.70;100.00;99865.78;5041738;28;20051;-77
2023/08/02 01:45:04;;;;;;;15.25;3.85;;;;;;;15.71;100.00;99853.94;5047393;28;20473;-77
2023/08/02 01:47:30;;;;;;;11.15;3.15;;;;;;;15.73;100.00;99856.47;5050177;28;20433;-77
2023/08/02 01:49:55;;;;;;;14.38;4.05;;;;;;;15.76;100.00;99853.41;5047484;28;20433;-77
2023/08/02 01:52:20;;;;;;;15.23;4.38;;;;;;;15.77;100.00;99854.25;5048215;28;20025;-77
2023/08/02 01:54:46;;;;;;;13.88;4.05;;;;;;;15.73;100.00;99846.47;5048099;28;20480;-77
2023/08/02 01:57:11;;;;;;;14.80;4.05;;;;;;;15.80;100.00;99851.22;5049818;28;20020;-77
2023/08/02 01:59:36;;;;;;;14.43;3.85;;;;;;;15.79;100.00;99838.72;5048157;28;20451;-77
2023/08/02 02:02:02;;;;;;;13.43;4.03;;;;;;;15.77;100.00;99835.28;5047578;28;20111;-77
2023/08/02 02:04:27;;;;;;;16.33;4.38;;;;;;;15.75;100.00;99830.03;5045267;28;20063;-76
2023/08/02 02:06:53;;;;;;;15.23;4.15;;;;;;;15.73;100.00;99830.22;5048162;28;20468;-77
2023/08/02 02:09:18;;;;;;;14.95;4.03;;;;;;;15.75;100.00;99811.09;5053300;28;20507;-77
2023/08/02 02:11:44;;;;;;;16.95;3.72;;;;;;;15.75;100.00;99799.41;5053007;28;20029;-77
2023/08/02 02:14:09;;;;;;;7.80;2.85;;;;;;;15.72;100.00;99804.16;5050615;28;20327;-77
2023/08/02 02:16:34;;;;;;;16.33;3.78;;;;;;;15.74;100.00;99798.56;5051023;28;20035;-77
2023/08/02 02:18:59;;;;;;;11.50;3.92;;;;;;;15.74;100.00;99785.03;5050773;28;20413;-77
2023/08/02 02:21:25;;;;;;;14.52;3.67;;;;;;;15.74;100.00;99782.31;5052241;28;20021;-77
2023/08/02 02:23:50;;;;;;;14.55;3.55;;;;;;;15.73;100.00;99773.31;5051971;28;20039;-77
2023/08/02 02:26:15;;;;;;;14.82;3.78;;;;;;;15.71;100.00;99760.97;5052294;28;20143;-77
2023/08/02 02:28:41;;;;;;;11.38;3.88;;;;;;;15.72;100.00;99755.41;5052266;28;20064;-77
2023/08/02 02:31:09;;;;;;;15.27;3.80;;;;;;;15.72;100.00;99749.13;5051680;28;20059;-77
2023/08/02 02:33:34;;;;;;;13.23;3.70;;;;;;;15.70;100.00;99745.75;5052278;28;20075;-77
2023/08/02 02:36:00;;;;;;;12.13;4.03;;;;;;;15.71;100.00;99745.56;5051523;28;20041;-77
2023/08/02 02:38:25;;;;;;;14.20;3.95;;;;;;;15.70;100.00;99743.88;5053823;28;20100;-77
2023/08/02 02:40:50;;;;;;;16.55;3.80;;;;;;;15.72;100.00;99750.00;5053823;28;20057;-76
2023/08/02 02:43:15;;;;;;;16.85;4.18;;;;;;;15.70;100.00;99743.03;5051872;28;20024;-77
2023/08/02 02:45:41;;;;;;;16.67;4.70;;;;;;;15.70;100.00;99738.47;5043220;28;20111;-77
2023/08/02 02:48:09;;;;;;;16.80;4.40;;;;;;;15.71;100.00;99733.88;5053739;28;20064;-77
2023/08/02 02:50:34;;;;;;;14.25;3.85;;;;;;;15.70;100.00;99746.59;5054645;28;20086;-80
2023/08/02 02:53:00;;;;;;;11.85;3.75;;;;;;;15.70;100.00;99749.28;5052460;28;20049;-80
2023/08/02 02:55:25;;;;;;;12.75;4.18;;;;;;;15.72;100.00;99751.84;5053746;28;20568;-80
2023/08/02 02:57:50;;;;;;;14.70;3.58;;;;;;;15.72;100.00;99752.69;5054684;28;20109;-81
2023/08/02 03:00:16;;;;;;;15.32;3.97;;;;;;;15.70;100.00;99733.03;5053201;28;20104;-80
2023/08/02 03:02:41;;;;;;;13.13;3.80;;;;;;;15.73;100.00;99738.13;5053463;28;20032;-80
2023/08/02 03:05:07;;;;;;;15.35;3.63;;;;;;;15.71;100.00;99729.31;5051991;28;20021;-80
2023/08/02 03:07:33;;;;;;;20.33;4.80;;;;;;;15.75;100.00;99708.13;5049552;28;20036;-80
2023/08/02 03:09:58;;;;;;;19.45;3.92;;;;;;;15.71;100.00;99685.97;5052303;28;20017;-80
2023/08/02 03:12:23;;;;;;;13.90;4.28;;;;;;;15.71;100.00;99680.56;5052746;28;20103;-80
2023/08/02 03:14:49;;;;;;;13.05;3.55;;;;;;;15.75;100.00;99666.66;5052992;28;20108;-80
2023/08/02 03:17:14;;;;;;;11.65;3.05;;;;;;;15.72;100.00;99666.00;5054704;28;20516;-80
2023/08/02 03:19:39;;;;;;;13.55;3.70;;;;;;;15.73;100.00;99659.56;5049609;28;20029;-80
2023/08/02 03:22:08;;;;;;;11.50;3.25;;;;;;;15.73;100.00;99656.00;5053518;28;20135;-80
2023/08/02 03:24:33;;;;;;;14.07;3.47;;;;;;;15.72;100.00;99643.47;5050882;28;20021;-80
2023/08/02 03:26:58;;;;;;;12.60;3.50;;;;;;;15.75;100.00;99642.28;5054870;28;20467;-80
2023/08/02 03:29:24;;;;;;;10.95;3.50;;;;;;;15.74;100.00;99641.47;5052947;28;20530;-80
2023/08/02 03:31:49;;;;;;;15.85;4.07;;;;;;;15.70;100.00;99632.00;5051311;28;20044;-80
2023/08/02 03:34:15;;;;;;;15.68;4.20;;;;;;;15.73;100.00;99646.00;5053614;28;20369;-80
2023/08/02 03:36:43;;;;;;;12.98;4.13;;;;;;;15.73;100.00;99646.00;5051797;28;20025;-80
2023/08/02 03:39:11;;;;;;;12.98;4.05;;;;;;;15.75;100.00;99642.28;5053890;28;20025;-80
2023/08/02 03:41:37;;;;;;;11.82;3.78;;;;;;;15.75;100.00;99631.44;5049934;28;20033;-80
2023/08/02 03:44:06;;;;;;;12.70;3.83;;;;;;;15.74;100.00;99622.50;5052233;28;20021;-80
2023/08/02 03:46:31;;;;;;;13.82;4.00;;;;;;;15.76;100.00;99623.16;5047777;28;20041;-80
2023/08/02 03:48:57;;;;;;;15.52;3.97;;;;;;;15.75;100.00;99620.63;5043285;28;20086;-80
2023/08/02 03:51:22;;;;;;;12.35;4.28;;;;;;;15.73;100.00;99610.78;5044745;28;20040;-81
2023/08/02 03:53:48;;;;;;;13.68;3.97;;;;;;;15.76;100.00;99597.94;5044228;28;20058;-81
2023/08/02 03:56:13;;;;;;;11.35;3.42;;;;;;;15.73;100.00;99591.84;5046364;28;20040;-80
2023/08/02 03:58:38;;;;;;;14.82;4.15;;;;;;;15.76;100.00;99592.53;5044501;28;20115;-80
2023/08/02 04:01:04;;;;;;;16.77;4.60;;;;;;;15.75;100.00;99577.28;5044296;28;20036;-76
2023/08/02 04:03:29;;;;;;;13.95;3.90;;;;;;;15.73;100.00;99575.59;5058253;28;20049;-77
2023/08/02 04:05:54;;;;;;;10.48;3.50;;;;;;;15.75;100.00;99569.16;5061692;28;20024;-76
2023/08/02 04:08:20;;;;;;;14.25;4.03;;;;;;;15.76;100.00;99563.56;5062567;28;20025;-76
2023/08/02 04:10:45;;;;;;;13.38;4.20;;;;;;;15.76;100.00;99558.13;5060268;28;20009;-78
2023/08/02 04:13:11;;;;;;;14.40;4.03;;;;;;;15.77;100.00;99553.56;5042381;28;20032;-77
2023/08/02 04:15:36;;;;;;;16.70;4.25;;;;;;;15.78;100.00;99544.41;5047758;28;20036;-77
2023/08/02 04:18:02;;;;;;;15.38;4.55;;;;;;;15.76;100.00;99541.06;5046271;28;20031;-78
2023/08/02 04:20:28;;;;;;;16.70;4.53;;;;;;;15.73;100.00;99532.25;5047256;28;20036;-78
2023/08/02 04:22:53;;;;;;;16.02;4.28;;;;;;;15.75;100.00;99531.22;5046244;28;20074;-77
2023/08/02 04:25:18;;;;;;;17.50;5.32;;;;;;;15.70;100.00;99526.34;5048720;28;20029;-77
2023/08/02 04:27:44;;;;;;;14.90;4.05;;;;;;;15.75;100.00;99513.09;5046688;28;20467;-77
2023/08/02 04:30:09;;;;;;;13.88;4.07;;;;;;;15.73;100.00;99505.16;5045932;28;20043;-77
2023/08/02 04:32:35;;;;;;;13.27;4.78;;;;;;;15.71;100.00;99496.38;5047436;28;20136;-77
2023/08/02 04:35:00;;;;;;;13.77;4.63;;;;;;;15.72;100.00;99492.66;5046760;28;20039;-78
2023/08/02 04:37:28;;;;;;;14.40;4.35;;;;;;;15.71;100.00;99488.25;5046532;28;20056;-77
2023/08/02 04:39:54;;;;;;;13.23;4.03;;;;;;;15.72;100.00;99487.25;5040236;28;20124;-77
2023/08/02 04:42:19;;;;;;;14.13;4.60;;;;;;;15.73;100.00;99478.06;5042694;28;20062;-78
2023/08/02 04:44:44;;;;;;;14.68;4.35;;;;;;;15.74;100.00;99468.09;5040841;28;20163;-77
2023/08/02 04:47:10;;;;;;;12.90;3.80;;;;;;;15.75;100.00;99453.50;5039155;28;20037;-78
2023/08/02 04:49:36;;;;;;;12.45;4.25;;;;;;;15.75;100.00;99441.84;5039160;28;20032;-78
2023/08/02 04:52:01;;;;;;;14.05;4.22;;;;;;;15.76;100.00;99444.38;5039147;28;20362;-78
2023/08/02 04:54:27;;;;;;;17.50;5.05;;;;;;;15.77;100.00;99442.50;5040714;28;20095;-78
2023/08/02 04:56:52;;;;;;;14.50;4.60;;;;;;;15.78;100.00;99436.91;5038517;28;20028;-77
2023/08/02 04:59:17;;;;;;;24.63;5.13;;;;;;;15.82;100.00;99432.84;5043070;28;20503;-77
2023/08/02 05:01:43;;;;;;;13.85;4.70;;;;;;;15.81;100.00;99425.75;5045866;28;20091;-77
2023/08/02 05:04:08;;;;;;;16.05;4.93;;;;;;;15.82;100.00;99426.59;5043253;28;20056;-76
2023/08/02 05:06:35;;;;;;;15.35;4.55;;;;;;;15.77;100.00;99418.09;5040419;28;20119;-77
2023/08/02 05:09:04;;;;;;;19.85;5.70;;;;;;;15.76;100.00;99417.28;5039661;28;20488;-77
2023/08/02 05:11:29;;;;;;;16.70;5.43;;;;;;;15.77;100.00;99418.97;5042639;28;20060;-77
2023/08/02 05:13:55;;;;;;;16.88;5.53;;;;;;;15.76;100.00;99411.03;5044814;28;20033;-77
2023/08/02 05:16:20;;;;;;;15.52;4.80;;;;;;;15.76;100.00;99411.03;5046718;28;20494;-77
2023/08/02 05:18:45;;;;;;;13.77;4.55;;;;;;;15.78;100.00;99409.84;5046242;28;20088;-78
2023/08/02 05:21:12;;;;;;;15.70;4.40;;;;;;;15.77;100.00;99382.91;5047881;28;20625;-77
2023/08/02 05:23:38;;;;;;;13.70;4.70;;;;;;;15.76;100.00;99389.34;5048200;28;20025;-78
2023/08/02 05:26:04;;;;;;;15.75;4.90;;;;;;;15.72;100.00;99395.16;5049629;28;20083;-78
2023/08/02 05:28:30;;;;;;;14.65;4.82;;;;;;;15.73;100.00;99385.13;5047465;28;20370;-78
2023/08/02 05:30:55;;;;;;;12.68;4.15;;;;;;;15.71;100.00;99368.22;5049047;28;20040;-79
2023/08/02 05:33:20;;;;;;;13.57;4.65;;;;;;;15.67;100.00;99361.50;5046522;28;20127;-78
2023/08/02 05:35:46;;;;;;;18.73;5.43;;;;;;;15.64;100.00;99351.03;5049279;28;20024;-78
2023/08/02 05:38:11;;;;;;;17.13;5.00;;;;;;;15.62;100.00;99340.34;5048693;28;20029;-78
2023/08/02 05:40:36;;;;;;;19.25;5.25;;;;;;;15.63;100.00;99335.81;5048420;28;20028;-78
2023/08/02 05:43:02;;;;;;;14.80;4.47;;;;;;;15.58;100.00;99339.06;5048048;28;20025;-78
2023/08/02 05:45:27;;;;;;;13.02;4.53;;;;;;;15.56;100.00;99330.25;5044804;28;20040;-78
2023/08/02 05:47:52;;;;;;;14.18;4.55;;;;;;;15.54;100.00;99321.50;5047081;28;20117;-78
2023/08/02 05:50:18;;;;;;;15.10;4.43;;;;;;;15.56;100.00;99319.44;5045429;28;20133;-77
2023/08/02 05:52:43;;;;;;;14.55;4.55;;;;;;;15.51;100.00;99311.03;5047186;28;20029;-78
2023/08/02 05:55:09;;;;;;;16.95;4.75;;;;;;;15.49;100.00;99302.22;5044037;28;20048;-78
2023/08/02 05:57:34;;;;;;;14.93;4.80;;;;;;;15.49;100.00;99302.22;5043816;28;20033;-78
2023/08/02 06:00:00;;;;;;;13.63;4.13;;;;;;;15.47;100.00;99288.03;5046081;28;20072;-77
2023/08/02 06:02:26;;;;;;;13.50;4.05;;;;;;;15.46;100.00;99270.09;5046621;28;20506;-79
2023/08/02 06:04:51;;;;;;;12.73;4.15;;;;;;;15.44;100.00;99255.91;5046127;28;20115;-79
2023/08/02 06:07:16;;;;;;;11.40;3.60;;;;;;;15.43;100.00;99255.06;5045690;28;20028;-78
2023/08/02 06:09:42;;;;;;;9.65;3.28;;;;;;;15.43;100.00;99243.41;5048101;28;20029;-78
2023/08/02 06:12:07;;;;;;;11.77;4.05;;;;;;;15.45;100.00;99244.06;5048592;28;20025;-79
2023/08/02 06:14:33;;;;;;;10.88;3.35;;;;;;;15.47;100.00;99233.91;5046379;28;20060;-79
2023/08/02 06:16:58;;;;;;;9.43;3.40;;;;;;;15.46;100.00;99233.06;5047414;28;20119;-79
2023/08/02 06:19:23;;;;;;;9.15;3.40;;;;;;;15.46;100.00;99229.50;5048787;28;20024;-78
2023/08/02 06:21:49;;;;;;;11.02;3.58;;;;;;;15.47;100.00;99215.78;5048093;28;20037;-78
2023/08/02 06:24:15;;;;;;;11.55;3.30;;;;;;;15.50;100.00;99211.84;5047637;28;20043;-79
2023/08/02 06:26:40;;;;;;;10.20;3.47;;;;;;;15.48;100.00;99209.34;5047843;28;20479;-78
2023/08/02 06:29:08;;;;;;;12.13;3.92;;;;;;;15.52;100.00;99198.97;5041430;28;20214;-79
2023/08/02 06:31:33;;;;;;;8.68;2.97;;;;;;;15.50;100.00;99196.44;5046619;28;20480;-79
2023/08/02 06:33:58;;;;;;;10.50;3.25;;;;;;;15.54;100.00;99189.63;5037553;28;20024;-79
2023/08/02 06:36:24;;;;;;;14.23;3.67;;;;;;;15.54;100.00;99180.69;5046337;28;20470;-78
2023/08/02 06:38:49;;;;;;;13.52;3.80;;;;;;;15.52;100.00;99180.88;5041743;28;20472;-79
2023/08/02 06:41:15;;;;;;;8.23;2.67;;;;;;;15.54;100.00;99170.69;5045076;28;20065;-80
2023/08/02 06:43:40;;;;;;;10.55;3.25;;;;;;;15.52;100.00;99161.06;5042280;28;20444;-79
2023/08/02 06:46:05;;;;;;;7.20;2.45;;;;;;;15.52;100.00;99155.66;5047221;28;20035;-80
2023/08/02 06:48:31;;;;;;;9.20;3.30;;;;;;;15.54;100.00;99159.84;5043193;28;20048;-80
2023/08/02 06:50:57;;;;;;;8.95;3.05;;;;;;;15.53;100.00;99131.13;5045123;28;20151;-80
2023/08/02 06:53:22;;;;;;;11.38;3.50;;;;;;;15.55;100.00;99122.81;5049480;28;20024;-80
2023/08/02 06:55:48;;;;;;;9.38;3.00;;;;;;;15.58;100.00;99111.59;5050279;28;20514;-79
2023/08/02 06:58:13;;;;;;;8.23;3.10;;;;;;;15.58;100.00;99113.44;5051186;28;20024;-78
2023/08/02 07:00:41;;;;;;;9.63;3.25;;;;;;;15.55;100.00;99112.81;5052056;28;20029;-80
2023/08/02 07:03:07;;;;;;;7.28;3.22;;;;;;;15.58;100.00;99105.31;5053174;28;20396;-80
2023/08/02 07:05:34;;;;;;;9.32;3.13;;;;;;;15.58;100.00;99094.50;5051032;28;20025;-79
2023/08/02 07:08:01;;;;;;;8.30;3.00;;;;;;;15.61;100.00;99091.41;5050150;28;20111;-80
2023/08/02 07:10:27;;;;;;;10.27;3.20;;;;;;;15.62;100.00;99093.91;5050297;28;20128;-79
2023/08/02 07:12:53;;;;;;;6.82;2.60;;;;;;;15.62;100.00;99093.91;5049171;28;20032;-80
2023/08/02 07:15:19;;;;;;;10.70;2.80;;;;;;;15.64;100.00;99083.75;5050115;28;20029;-79
2023/08/02 07:17:45;;;;;;;7.88;2.63;;;;;;;15.65;100.00;99077.31;5052243;28;20155;-79
2023/08/02 07:20:11;;;;;;;8.65;2.60;;;;;;;15.67;100.00;99080.66;5050358;28;20112;-80
2023/08/02 07:22:37;;;;;;;8.75;2.72;;;;;;;15.65;100.00;99082.75;5052133;28;20108;-80
2023/08/02 07:25:03;;;;;;;7.53;2.95;;;;;;;15.66;100.00;99078.97;5048627;28;20116;-79
2023/08/02 07:27:32;;;;;;;9.02;3.05;;;;;;;15.70;100.00;99074.88;5048765;28;20111;-80
2023/08/02 07:29:57;;;;;;;10.90;3.17;;;;;;;15.73;100.00;99070.94;5045771;28;20025;-79
2023/08/02 07:32:23;;;;;;;6.93;2.85;;;;;;;15.75;100.00;99068.06;5050507;28;20056;-79
2023/08/02 07:34:48;;;;;;;8.50;3.10;;;;;;;15.78;100.00;99064.97;5046662;28;20040;-79
2023/08/02 07:37:14;;;;;;;8.88;3.17;;;;;;;15.80;100.00;99052.09;5042299;28;20031;-80
2023/08/02 07:39:40;;;;;;;9.13;2.70;;;;;;;15.78;100.00;99054.13;5042239;28;20064;-80
2023/08/02 07:42:06;;;;;;;9.32;3.08;;;;;;;15.83;100.00;99046.31;5050254;28;20393;-80
2023/08/02 07:44:32;;;;;;;7.20;2.67;;;;;;;15.89;100.00;99042.84;5049491;28;20036;-80
2023/08/02 07:46:57;;;;;;;9.80;3.40;;;;;;;15.96;100.00;99032.91;5043707;28;20032;-79
2023/08/02 07:49:23;;;;;;;8.90;2.80;;;;;;;16.00;100.00;99027.94;5045412;28;20547;-80
2023/08/02 07:51:48;;;;;;;7.78;2.92;;;;;;;16.04;100.00;99021.94;5044984;28;20025;-78
2023/08/02 07:54:13;;;;;;;10.00;3.22;;;;;;;16.06;100.00;99013.59;5055802;28;20029;-78
2023/08/02 07:56:39;;;;;;;11.52;3.30;;;;;;;16.15;100.00;99006.19;5065547;28;20074;-78
2023/08/02 07:59:04;;;;;;;10.05;3.17;;;;;;;16.16;100.00;98994.31;5057923;28;20020;-79
2023/08/02 08:01:30;;;;;;;7.95;3.08;;;;;;;16.24;100.00;99008.56;5056725;28;20503;-79
2023/08/02 08:03:55;;;;;;;7.60;2.85;;;;;;;16.27;100.00;98996.50;5065054;28;20097;-79
2023/08/02 08:06:23;;;;;;;6.90;2.45;;;;;;;16.31;100.00;98997.81;5062482;28;20086;-79
2023/08/02 08:08:49;;;;;;;6.72;2.28;;;;;;;16.36;100.00;98995.31;5070096;28;20056;-80
2023/08/02 08:11:14;;;;;;;7.13;2.50;;;;;;;16.42;100.00;98999.97;5067149;28;20028;-79
2023/08/02 08:13:40;;;;;;;4.38;2.20;;;;;;;16.41;100.00;98995.59;5065772;28;20032;-78
2023/08/02 08:16:05;;;;;;;9.30;2.80;;;;;;;16.47;100.00;98995.81;5064006;28;20052;-80
2023/08/02 08:18:31;;;;;;;8.38;2.92;;;;;;;16.49;100.00;98982.94;5065827;28;20132;-79
2023/08/02 08:20:57;;;;;;;5.40;2.15;;;;;;;16.53;100.00;98976.06;5059994;28;20033;-81
2023/08/02 08:23:23;;;;;;;6.03;2.03;;;;;;;16.55;100.00;98963.16;5066315;28;20036;-80
2023/08/02 08:25:48;;;;;;;6.68;2.35;;;;;;;16.58;100.00;98976.31;5068208;28;20077;-80
2023/08/02 08:28:14;;;;;;;6.97;2.38;;;;;;;16.59;100.00;98989.69;5068061;28;20025;-80
2023/08/02 08:30:39;;;;;;;5.60;2.25;;;;;;;16.63;100.00;98983.84;5070005;28;20094;-80
2023/08/02 08:33:07;;;;;;;6.03;2.33;;;;;;;16.66;100.00;98986.16;5065987;28;20047;-80
2023/08/02 08:35:36;;;;;;;3.85;1.98;;;;;;;16.70;100.00;98974.72;5067316;28;20033;-78
2023/08/02 08:38:21;;;;;;;7.35;2.20;;;;;;;16.74;100.00;98981.44;5065776;28;20052;-79
2023/08/02 08:40:54;;;;;;;5.30;2.00;;;;;;;16.83;100.00;98978.56;5062149;28;20044;-79
2023/08/02 08:43:25;;;;;;;4.65;2.20;;;;;;;16.85;100.00;98968.34;5065907;28;20032;-81
2023/08/02 08:45:50;;;;;;;4.50;2.35;;;;;;;16.89;100.00;98973.19;5066316;28;20052;-81
2023/08/02 08:48:16;;;;;;;5.57;2.58;;;;;;;16.97;100.00;98965.94;5066017;28;20041;-80
2023/08/02 08:50:44;;;;;;;10.02;2.95;;;;;;;17.01;100.00;98968.03;5068905;28;20166;-82
2023/08/02 08:53:17;;;;;;;4.95;2.58;;;;;;;17.05;100.00;98966.59;5071173;28;20088;-81
2023/08/02 08:55:46;;;;;;;5.90;2.67;;;;;;;17.07;100.00;98969.13;5070386;28;20085;-79
2023/08/02 08:58:12;;;;;;;6.65;2.95;;;;;;;17.19;100.00;98966.66;5068094;28;20112;-79
2023/08/02 09:00:38;;;;;;;6.78;3.08;;;;;;;17.26;100.00;98956.69;5066757;28;20109;-79
2023/08/02 09:03:03;;;;;;;5.38;2.78;;;;;;;17.37;100.00;98947.94;5072896;28;20054;-80
2023/08/02 09:05:30;;;;;;;5.97;2.63;;;;;;;17.40;100.00;98942.13;5069605;28;20041;-80
2023/08/02 09:07:59;;;;;;;3.13;2.15;;;;;;;17.53;100.00;98943.22;5067668;28;20032;-79
2023/08/02 09:10:26;;;;;;;4.82;2.75;;;;;;;17.63;100.00;98933.63;5065335;28;20041;-79
2023/08/02 09:12:51;;;;;;;6.43;2.95;;;;;;;17.68;100.00;98937.59;5057326;28;20128;-85
2023/08/02 09:15:17;;;;;;;4.70;2.60;;;;;;;17.73;100.00;98925.06;5050764;28;20460;-83
2023/08/02 09:17:53;;;;;;;4.32;2.63;;;;;;;17.79;100.00;98918.81;5047296;28;20032;-85
2023/08/02 09:20:23;;;;;;;4.13;2.60;;;;;;;17.92;100.00;98917.16;5048159;28;20025;-84
2023/08/02 09:22:49;;;;;;;6.43;2.90;;;;;;;17.95;100.00;98914.88;5051764;28;20408;-83
2023/08/02 09:25:21;;;;;;;8.20;3.00;;;;;;;18.03;100.00;98904.84;5049760;28;20044;-82
2023/08/02 09:27:48;;;;;;;5.63;2.90;;;;;;;18.08;100.00;98902.34;5047705;28;20732;-84
2023/08/02 09:30:25;;;;;;;5.30;2.70;;;;;;;18.11;100.00;98896.47;5047933;28;20030;-85
2023/08/02 09:33:09;;;;;;;7.63;3.20;;;;;;;18.21;100.00;98893.34;5050027;28;20194;-85
2023/08/02 09:35:47;;;;;;;6.05;2.85;;;;;;;18.24;100.00;98895.63;5059648;28;20035;-85
2023/08/02 09:38:13;;;;;;;5.30;2.67;;;;;;;18.27;100.00;98904.22;5051186;28;20025;-84
2023/08/02 09:40:40;;;;;;;6.57;3.05;;;;;;;18.28;100.00;98899.63;5048580;28;20306;-84
2023/08/02 09:43:09;;;;;;;6.53;2.80;;;;;;;18.39;100.00;98881.81;5050418;28;20025;-83
2023/08/02 09:45:35;;;;;;;4.10;2.63;;;;;;;18.49;100.00;98885.78;5050987;28;20029;-85
2023/08/02 09:48:02;;;;;;;4.55;2.25;;;;;;;18.56;100.00;98887.66;5050722;28;20021;-84
2023/08/02 09:50:27;;;;;;;2.83;2.30;;;;;;;18.65;100.00;98878.19;5049850;28;20031;-85
2023/08/02 09:52:54;;;;;;;4.72;2.80;;;;;;;18.72;100.00;98884.44;5052386;28;20080;-85
2023/08/02 09:55:20;;;;;;;4.20;2.05;;;;;;;18.76;100.00;98880.25;5048900;28;20025;-84
2023/08/02 09:57:47;;;;;;;5.80;2.42;;;;;;;18.83;100.00;98878.34;5049682;28;20454;-85
2023/08/02 10:00:14;;;;;;;3.28;2.00;;;;;;;18.85;100.00;98876.25;5049120;28;20134;-85
2023/08/02 10:02:40;;;;;;;3.85;2.10;;;;;;;18.88;100.00;98875.00;5050822;28;20063;-84
2023/08/02 10:05:07;;;;;;;3.05;2.22;;;;;;;18.89;100.00;98878.56;5049524;28;20088;-84
2023/08/02 10:07:45;;;;;;;5.15;2.33;;;;;;;18.94;100.00;98884.22;5050875;28;20033;-85
2023/08/02 10:10:18;;;;;;;2.75;1.98;;;;;;;19.02;100.00;98873.09;5041433;28;20108;-85
2023/08/02 10:12:59;;;;;;;4.10;2.10;;;;;;;19.09;100.00;98871.16;5051367;28;20036;-84
2023/08/02 10:15:26;;;;;;;4.47;2.05;;;;;;;19.19;100.00;98862.50;5043706;28;20021;-85
2023/08/02 10:17:51;;;;;;;4.38;2.30;;;;;;;19.23;100.00;98852.03;5049731;28;20558;-84
2023/08/02 10:20:17;;;;;;;2.90;1.90;;;;;;;19.28;100.00;98844.03;5049569;28;20033;-82
2023/08/02 10:22:44;;;;;;;4.80;2.15;;;;;;;19.39;100.00;98835.16;5049742;28;20037;-80
2023/08/02 10:25:11;;;;;;;4.10;2.10;;;;;;;19.48;100.00;98825.66;5047959;28;20028;-81
2023/08/02 10:27:37;;;;;;;2.72;2.00;;;;;;;19.54;100.00;98826.69;5048854;28;20029;-80
2023/08/02 10:30:04;;;;;;;4.28;2.15;;;;;;;19.55;100.00;98831.09;5045310;28;20358;-81
2023/08/02 10:32:29;;;;;;;3.67;1.98;;;;;;;19.54;100.00;98827.50;5053332;28;20067;-81
2023/08/02 10:34:56;;;;;;;4.07;2.10;;;;;;;19.54;100.00;98816.59;5052534;28;20480;-80
2023/08/02 10:37:22;;;;;;;5.15;2.08;;;;;;;19.54;100.00;98813.88;5050464;28;20403;-81
2023/08/02 10:39:47;;;;;;;7.35;2.63;;;;;;;19.53;100.00;98817.69;5051811;28;20033;-81
2023/08/02 10:42:26;;;;;;;4.93;2.40;;;;;;;19.53;100.00;98803.22;5052300;28;20032;-81
2023/08/02 10:44:55;;;;;;;6.40;2.47;;;;;;;19.52;100.00;98810.56;5048367;28;20021;-80
2023/08/02 10:47:27;;;;;;;5.45;2.60;;;;;;;19.49;100.00;98804.72;5045882;28;20099;-81
2023/08/02 10:49:54;;;;;;;4.68;2.40;;;;;;;19.44;100.00;98819.00;5051811;28;20118;-82
2023/08/02 10:52:42;;;;;;;3.13;1.92;;;;;;;19.38;100.00;98815.25;5049040;28;20056;-81
2023/08/02 10:55:12;;;;;;;6.63;2.58;;;;;;;19.32;100.00;98812.59;5047721;28;20035;-80
2023/08/02 10:57:39;;;;;;;6.93;2.30;;;;;;;19.29;100.00;98797.50;5047190;28;20021;-80
2023/08/02 11:00:19;;;;;;;8.63;2.90;;;;;;;19.29;100.00;98783.91;5049808;28;20029;-80
2023/08/02 11:02:48;;;;;;;5.47;2.42;;;;;;;19.31;100.00;98779.06;5050340;28;20052;-80
2023/08/02 11:05:16;;;;;;;6.10;2.53;;;;;;;19.35;100.00;98771.28;5053531;28;20029;-80
2023/08/02 11:07:41;;;;;;;5.70;2.00;;;;;;;19.36;100.00;98775.69;5051276;28;20033;-80
2023/08/02 11:10:07;;;;;;;7.30;2.65;;;;;;;19.39;100.00;98776.06;5051721;28;20098;-79
2023/08/02 11:12:34;;;;;;;9.60;2.92;;;;;;;19.36;100.00;98779.22;5051276;28;20040;-79
2023/08/02 11:15:00;;;;;;;4.95;2.40;;;;;;;19.32;100.00;98778.00;5051864;28;20024;-79
2023/08/02 11:17:25;;;;;;;7.38;3.15;;;;;;;19.28;100.00;98793.09;5053859;28;20050;-78